Kitty C — 2EIQ6 — position and weather

sailwx.info

Track history (hours):
 
Tides and Currents Weather Stations Pressure Air Temp Water Temp Dewpoint Dewpoint Depression Visibility Wind Speed Wind Dir Waves Ship Positions

Kitty C

Last reported at 2015-Jul-01 04:33 UTC. Time now 2015-Jul-01 04:55 UTC.
Position N 43°34' E 010°19'.

Length 106 m; draft 6.6 m.

Type: Cargo ship. MMSI: 235085464.

Date/timePositionNaut miles runAvg speedWind from/ knotsBaromVisibWave heightAir tempDewpointWater temp
2015-Jul-01 04:33N 43°34' E 010°19'0 0.0
2015-Jul-01 03:33N 43°34' E 010°19'0 0.0
2015-Jul-01 02:33N 43°34' E 010°19'0 0.0
2015-Jul-01 01:33N 43°34' E 010°19'0 0.0
2015-Jul-01 00:33N 43°34' E 010°19'0 0.0
2015-Jun-30 23:33N 43°34' E 010°19'0 0.0
2015-Jun-30 22:33N 43°34' E 010°19'0 0.0
2015-Jun-30 21:33N 43°34' E 010°19'0 0.0
2015-Jun-30 20:33N 43°34' E 010°19'0 0.0
2015-Jun-30 19:33N 43°34' E 010°19'0 0.0
2015-Jun-30 18:33N 43°34' E 010°19'0 0.0
2015-Jun-30 17:33N 43°34' E 010°19'0 0.0
2015-Jun-30 16:33N 43°34' E 010°19'0 0.0
2015-Jun-30 15:33N 43°34' E 010°19'0 0.0
2015-Jun-30 14:33N 43°34' E 010°19'0 0.0
2015-Jun-30 13:33N 43°34' E 010°19'0 0.0
2015-Jun-30 12:33N 43°34' E 010°19'0 0.0
2015-Jun-30 11:33N 43°34' E 010°19'0 0.0
2015-Jun-30 10:33N 43°34' E 010°19'0 0.0
2015-Jun-30 09:33N 43°34' E 010°19'0 0.0
2015-Jun-30 08:33N 43°34' E 010°19'0 0.0
2015-Jun-30 07:33N 43°34' E 010°19'0 0.0
2015-Jun-30 06:33N 43°34' E 010°19'0 0.0
2015-Jun-30 05:33N 43°34' E 010°19'0 0.0
2015-Jun-30 04:33N 43°34' E 010°19'0 0.0
2015-Jun-30 03:33N 43°34' E 010°19'0 0.0
2015-Jun-30 02:33N 43°34' E 010°19'0 0.0
2015-Jun-30 01:33N 43°34' E 010°19'0 0.0
2015-Jun-30 00:33N 43°34' E 010°19'0 0.0
2015-Jun-29 23:33N 43°34' E 010°19'0 0.0
2015-Jun-29 22:33N 43°34' E 010°19'0 0.0
2015-Jun-29 21:33N 43°34' E 010°19'1 0.8
2015-Jun-29 20:33N 43°34' E 010°18'3 3.1
2015-Jun-29 19:32N 43°31' E 010°17'0 0.0
2015-Jun-29 18:32N 43°31' E 010°17'0 0.0
2015-Jun-29 17:32N 43°31' E 010°17'0 0.0
2015-Jun-29 16:32N 43°31' E 010°17'0 0.1
2015-Jun-29 15:33N 43°31' E 010°17'10 9.7
2015-Jun-29 14:33N 43°25' E 010°06'1110.5
2015-Jun-29 13:33N 43°19' E 009°54'1010.5
2015-Jun-29 12:33N 43°15' E 009°41'1110.5
2015-Jun-29 11:33N 43°11' E 009°28'1110.8
2015-Jun-29 10:33N 43°05' E 009°15'1110.5
2015-Jun-29 09:33N 42°58' E 009°04'1010.2
2015-Jun-29 08:33N 42°51' E 008°54'1010.3
2015-Jun-29 07:33N 42°44' E 008°44'1111.4
2015-Jun-29 06:34N 42°36' E 008°33'6610.9
2015-Jun-29 00:28N 41°51' E 007°28'1010.6
2015-Jun-28 23:33N 41°44' E 007°18'1110.5
2015-Jun-28 22:33N 41°37' E 007°08'1110.4
2015-Jun-28 21:32N 41°29' E 006°58'17710.4
2015-Jun-28 04:31N 39°30' E 004°05'2210.6
2015-Jun-28 02:25N 39°19' E 003°40'910.4
2015-Jun-28 01:33N 39°14' E 003°31'1010.1
2015-Jun-28 00:33N 39°09' E 003°19'1010.3
2015-Jun-27 23:33N 39°04' E 003°08'1010.4
2015-Jun-27 22:33N 38°57' E 002°57'1010.3
2015-Jun-27 21:33N 38°52' E 002°46'1010.3
2015-Jun-27 20:33N 38°46' E 002°35'10 9.8
2015-Jun-27 19:33N 38°41' E 002°24'1010.0
2015-Jun-27 18:33N 38°36' E 002°14'1010.0
2015-Jun-27 17:33N 38°30' E 002°03'1010.1
2015-Jun-27 16:33N 38°25' E 001°52'1110.5
2015-Jun-27 15:30N 38°19' E 001°40'1010.8
2015-Jun-27 14:33N 38°13' E 001°29'1110.8
2015-Jun-27 13:33N 38°07' E 001°17'1110.7
2015-Jun-27 12:33N 38°02' E 001°06'1111.0
2015-Jun-27 11:33N 37°56' E 000°54'1111.0
2015-Jun-27 10:33N 37°50' E 000°42'1110.8
2015-Jun-27 09:33N 37°44' E 000°31'1110.6
2015-Jun-27 08:33N 37°39' E 000°20'1110.5
2015-Jun-27 07:33N 37°33' E 000°08'1010.2
2015-Jun-27 06:33N 37°27' W 000°02'1010.2
2015-Jun-27 05:33N 37°22' W 000°13'1010.2
2015-Jun-27 04:33N 37°16' W 000°24'1010.4
2015-Jun-27 03:33N 37°11' W 000°35'1010.4
2015-Jun-27 02:33N 37°05' W 000°46'1010.4
2015-Jun-27 01:33N 36°60' W 000°57'3610.3
2015-Jun-26 22:06N 36°40' W 001°35'610.3
2015-Jun-26 21:33N 36°37' W 001°40'1010.2
2015-Jun-26 20:33N 36°32' W 001°51'1010.2
2015-Jun-26 19:33N 36°27' W 002°02'1010.1
2015-Jun-26 18:33N 36°22' W 002°13'1010.2
2015-Jun-26 17:33N 36°20' W 002°26'1010.1
2015-Jun-26 16:33N 36°19' W 002°38'1010.4
2015-Jun-26 15:33N 36°17' W 002°51'1110.8
2015-Jun-26 14:33N 36°16' W 003°04'10611.2
2015-Jun-26 05:06N 35°59' W 005°13'610.6
2015-Jun-26 04:33N 35°58' W 005°20'14512.1
2015-Jun-25 16:31N 36°21' W 008°18'5 4.8
2015-Jun-25 15:33N 36°22' W 008°24'6 6.3
2015-Jun-25 14:32N 36°23' W 008°32'6 6.3
2015-Jun-25 13:33N 36°25' W 008°39'5 5.4
2015-Jun-25 12:33N 36°26' W 008°46'8 6.5
2015-Jun-25 11:19N 36°28' W 008°55'5 6.2
2015-Jun-25 10:33N 36°30' W 009°01'41 7.7
2015-Jun-25 05:13N 36°60' W 009°37'710.3
2015-Jun-25 04:33N 37°06' W 009°38'2110.4
2015-Jun-25 02:33N 37°27' W 009°44'1110.3
2015-Jun-25 01:27N 37°38' W 009°47'1210.6
2015-Jun-25 00:20N 37°49' W 009°51'810.5
2015-Jun-24 23:33N 37°57' W 009°53'1110.4
2015-Jun-24 22:33N 38°07' W 009°56'1010.3
2015-Jun-24 21:33N 38°17' W 009°59'1110.4
2015-Jun-24 20:28N 38°28' W 010°02'910.2
2015-Jun-24 19:33N 38°38' W 010°04'1010.1
2015-Jun-24 18:33N 38°48' W 010°05'1010.2
2015-Jun-24 17:33N 38°58' W 010°04'1010.3
2015-Jun-24 16:33N 39°08' W 010°01'1010.3
2015-Jun-24 15:33N 39°18' W 009°57'  
2015-Jun-22 03:32N 45°36' W 008°43'2711.5
2015-Jun-22 01:13N 46°01' W 008°28'1911.5
2015-Jun-21 23:33N 46°18' W 008°17'3411.0
2015-Jun-21 20:25N 46°50' W 007°58'1011.3
2015-Jun-21 19:30N 46°60' W 007°52'1111.4
2015-Jun-21 18:33N 47°10' W 007°46'1111.3
2015-Jun-21 17:33N 47°20' W 007°39'1111.1
2015-Jun-21 16:33N 47°30' W 007°33'1111.0
2015-Jun-21 15:33N 47°40' W 007°26'1110.8
2015-Jun-21 14:33N 47°50' W 007°20'  
Track history (hours):
 
Tides and Currents Weather Stations Pressure Air Temp Water Temp Dewpoint Dewpoint Depression Visibility Wind Speed Wind Dir Waves Ship Positions

Kitty C

Last reported at 2015-Jul-01 04:33 UTC. Time now 2015-Jul-01 04:55 UTC.
Position N 43°34' E 010°19'.

Length 106 m; draft 6.6 m.

Type: Cargo ship. MMSI: 235085464.

Date/timePositionNaut miles runAvg speedWind from/ knotsBaromVisibWave heightAir tempDewpointWater temp
2015-Jul-01 04:33N 43°34' E 010°19'0 0.0
2015-Jul-01 03:33N 43°34' E 010°19'0 0.0
2015-Jul-01 02:33N 43°34' E 010°19'0 0.0
2015-Jul-01 01:33N 43°34' E 010°19'0 0.0
2015-Jul-01 00:33N 43°34' E 010°19'0 0.0
2015-Jun-30 23:33N 43°34' E 010°19'0 0.0
2015-Jun-30 22:33N 43°34' E 010°19'0 0.0
2015-Jun-30 21:33N 43°34' E 010°19'0 0.0
2015-Jun-30 20:33N 43°34' E 010°19'0 0.0
2015-Jun-30 19:33N 43°34' E 010°19'0 0.0
2015-Jun-30 18:33N 43°34' E 010°19'0 0.0
2015-Jun-30 17:33N 43°34' E 010°19'0 0.0
2015-Jun-30 16:33N 43°34' E 010°19'0 0.0
2015-Jun-30 15:33N 43°34' E 010°19'0 0.0
2015-Jun-30 14:33N 43°34' E 010°19'0 0.0
2015-Jun-30 13:33N 43°34' E 010°19'0 0.0
2015-Jun-30 12:33N 43°34' E 010°19'0 0.0
2015-Jun-30 11:33N 43°34' E 010°19'0 0.0
2015-Jun-30 10:33N 43°34' E 010°19'0 0.0
2015-Jun-30 09:33N 43°34' E 010°19'0 0.0
2015-Jun-30 08:33N 43°34' E 010°19'0 0.0
2015-Jun-30 07:33N 43°34' E 010°19'0 0.0
2015-Jun-30 06:33N 43°34' E 010°19'0 0.0
2015-Jun-30 05:33N 43°34' E 010°19'0 0.0
2015-Jun-30 04:33N 43°34' E 010°19'0 0.0
2015-Jun-30 03:33N 43°34' E 010°19'0 0.0
2015-Jun-30 02:33N 43°34' E 010°19'0 0.0
2015-Jun-30 01:33N 43°34' E 010°19'0 0.0
2015-Jun-30 00:33N 43°34' E 010°19'0 0.0
2015-Jun-29 23:33N 43°34' E 010°19'0 0.0
2015-Jun-29 22:33N 43°34' E 010°19'0 0.0
2015-Jun-29 21:33N 43°34' E 010°19'1 0.8
2015-Jun-29 20:33N 43°34' E 010°18'3 3.1
2015-Jun-29 19:32N 43°31' E 010°17'0 0.0
2015-Jun-29 18:32N 43°31' E 010°17'0 0.0
2015-Jun-29 17:32N 43°31' E 010°17'0 0.0
2015-Jun-29 16:32N 43°31' E 010°17'0 0.1
2015-Jun-29 15:33N 43°31' E 010°17'10 9.7
2015-Jun-29 14:33N 43°25' E 010°06'1110.5
2015-Jun-29 13:33N 43°19' E 009°54'1010.5
2015-Jun-29 12:33N 43°15' E 009°41'1110.5
2015-Jun-29 11:33N 43°11' E 009°28'1110.8
2015-Jun-29 10:33N 43°05' E 009°15'1110.5
2015-Jun-29 09:33N 42°58' E 009°04'1010.2
2015-Jun-29 08:33N 42°51' E 008°54'1010.3
2015-Jun-29 07:33N 42°44' E 008°44'1111.4
2015-Jun-29 06:34N 42°36' E 008°33'6610.9
2015-Jun-29 00:28N 41°51' E 007°28'1010.6
2015-Jun-28 23:33N 41°44' E 007°18'1110.5
2015-Jun-28 22:33N 41°37' E 007°08'1110.4
2015-Jun-28 21:32N 41°29' E 006°58'17710.4
2015-Jun-28 04:31N 39°30' E 004°05'2210.6
2015-Jun-28 02:25N 39°19' E 003°40'910.4
2015-Jun-28 01:33N 39°14' E 003°31'1010.1
2015-Jun-28 00:33N 39°09' E 003°19'1010.3
2015-Jun-27 23:33N 39°04' E 003°08'1010.4
2015-Jun-27 22:33N 38°57' E 002°57'1010.3
2015-Jun-27 21:33N 38°52' E 002°46'1010.3
2015-Jun-27 20:33N 38°46' E 002°35'10 9.8
2015-Jun-27 19:33N 38°41' E 002°24'1010.0
2015-Jun-27 18:33N 38°36' E 002°14'1010.0
2015-Jun-27 17:33N 38°30' E 002°03'1010.1
2015-Jun-27 16:33N 38°25' E 001°52'1110.5
2015-Jun-27 15:30N 38°19' E 001°40'1010.8
2015-Jun-27 14:33N 38°13' E 001°29'1110.8
2015-Jun-27 13:33N 38°07' E 001°17'1110.7
2015-Jun-27 12:33N 38°02' E 001°06'1111.0
2015-Jun-27 11:33N 37°56' E 000°54'1111.0
2015-Jun-27 10:33N 37°50' E 000°42'1110.8
2015-Jun-27 09:33N 37°44' E 000°31'1110.6
2015-Jun-27 08:33N 37°39' E 000°20'1110.5
2015-Jun-27 07:33N 37°33' E 000°08'1010.2
2015-Jun-27 06:33N 37°27' W 000°02'1010.2
2015-Jun-27 05:33N 37°22' W 000°13'1010.2
2015-Jun-27 04:33N 37°16' W 000°24'1010.4
2015-Jun-27 03:33N 37°11' W 000°35'1010.4
2015-Jun-27 02:33N 37°05' W 000°46'1010.4
2015-Jun-27 01:33N 36°60' W 000°57'3610.3
2015-Jun-26 22:06N 36°40' W 001°35'610.3
2015-Jun-26 21:33N 36°37' W 001°40'1010.2
2015-Jun-26 20:33N 36°32' W 001°51'1010.2
2015-Jun-26 19:33N 36°27' W 002°02'1010.1
2015-Jun-26 18:33N 36°22' W 002°13'1010.2
2015-Jun-26 17:33N 36°20' W 002°26'1010.1
2015-Jun-26 16:33N 36°19' W 002°38'1010.4
2015-Jun-26 15:33N 36°17' W 002°51'1110.8
2015-Jun-26 14:33N 36°16' W 003°04'10611.2
2015-Jun-26 05:06N 35°59' W 005°13'610.6
2015-Jun-26 04:33N 35°58' W 005°20'14512.1
2015-Jun-25 16:31N 36°21' W 008°18'5 4.8
2015-Jun-25 15:33N 36°22' W 008°24'6 6.3
2015-Jun-25 14:32N 36°23' W 008°32'6 6.3
2015-Jun-25 13:33N 36°25' W 008°39'5 5.4
2015-Jun-25 12:33N 36°26' W 008°46'8 6.5
2015-Jun-25 11:19N 36°28' W 008°55'5 6.2
2015-Jun-25 10:33N 36°30' W 009°01'41 7.7
2015-Jun-25 05:13N 36°60' W 009°37'710.3
2015-Jun-25 04:33N 37°06' W 009°38'2110.4
2015-Jun-25 02:33N 37°27' W 009°44'1110.3
2015-Jun-25 01:27N 37°38' W 009°47'1210.6
2015-Jun-25 00:20N 37°49' W 009°51'810.5
2015-Jun-24 23:33N 37°57' W 009°53'1110.4
2015-Jun-24 22:33N 38°07' W 009°56'1010.3
2015-Jun-24 21:33N 38°17' W 009°59'1110.4
2015-Jun-24 20:28N 38°28' W 010°02'910.2
2015-Jun-24 19:33N 38°38' W 010°04'1010.1
2015-Jun-24 18:33N 38°48' W 010°05'1010.2
2015-Jun-24 17:33N 38°58' W 010°04'1010.3
2015-Jun-24 16:33N 39°08' W 010°01'1010.3
2015-Jun-24 15:33N 39°18' W 009°57'  
2015-Jun-22 03:32N 45°36' W 008°43'2711.5
2015-Jun-22 01:13N 46°01' W 008°28'1911.5
2015-Jun-21 23:33N 46°18' W 008°17'3411.0
2015-Jun-21 20:25N 46°50' W 007°58'1011.3
2015-Jun-21 19:30N 46°60' W 007°52'1111.4
2015-Jun-21 18:33N 47°10' W 007°46'1111.3
2015-Jun-21 17:33N 47°20' W 007°39'1111.1
2015-Jun-21 16:33N 47°30' W 007°33'1111.0
2015-Jun-21 15:33N 47°40' W 007°26'1110.8
2015-Jun-21 14:33N 47°50' W 007°20'  

Dump ship's entire track history